Algoa, TX

3:46 PM CDT on July 04, 2015 (GMT -0500)
CoffeeMuses | | Change Station
CLOSE
Current Station
Personal Weather Station
Location: Alvin, TX
Elevation: 39 ft
Nearby Weather Stations

Elev 39 ft 29.41 °N, 95.23 °W | Updated 13 minutes ago

Thunderstorm
Thunderstorm
80.9 °F
Feels Like 79 °F
N
0.0
Wind Variable Wind from WSW

Today
High -- | Low -- °F
--% Chance of Precip.
Yesterday
High -- | Low -- °F
Precip. -- in
6:26 AM 8:24 PM
Waning Gibbous, 90% visible
Pressure 30.02 in
Visibility 10.0 miles
Clouds Few 4600 ft
Scattered Clouds 7500 ft
Scattered Clouds 10000 ft
Heat Index 79 °F
Dew Point Not available.
Humidity Not available.
Rainfall 0.00 in
Snow Depth Not available.
UV 8 out of 12
Pollen 3.40 out of 12
Air Quality Not available.
Flu Activity Not available.
SPECI KLVJ 042038Z AUTO 17012G15KT 10SM -RA FEW046 SCT075 SCT100 29/24 A3002 RMK AO2 LTG DSNT N AND NE RAE17B25 TSB1958E16 P0003 T02890239

More Conditions Fewer Conditions

Pressure 30.02 in
Visibility 10.0 miles
Clouds Few 4600 ft
Scattered Clouds 7500 ft
Scattered Clouds 10000 ft
Heat Index 79 °F
Dew Point Not available.
Humidity Not available.
Rainfall 0.00 in
Snow Depth Not available.
UV 8 out of 12
Pollen 3.40 out of 12
Air Quality Not available.
Flu Activity Not available.
SPECI KLVJ 042038Z AUTO 17012G15KT 10SM -RA FEW046 SCT075 SCT100 29/24 A3002 RMK AO2 LTG DSNT N AND NE RAE17B25 TSB1958E16 P0003 T02890239

More Conditions Fewer Conditions

10-Day Weather Forecast

×

Almanac

Astronomy

Jul. 04, 2015 Rise Set
Actual Time
Civil Twilight
Nautical Twilight
Astronomical Twilight
Moon
Length of Visible Light
Length of Day
Tomorrow will be .
, % of the Moon is Illuminated

Today's Extremes

State Highs State Lows

Community

WunderPhotos

Upload Photos

1,835,091 photos uploaded!

WunderBlogs® & News

Nearby

Air Quality

  Air Quality AQ Index Pollutant
Not available.

Snow Depth

Station Depth Elevation

Earthquake Activity

City Distance Mag. Time & Date
Minimum magnitude displayed is 2.5.

Coastal Water Temperatures

Place Temperature

Stations

Nearby Weather Stations

Station Location Temp. Windchill Dew Point Humidity Wind Precip. Elev Updated Type